Time;durP1;ratioP1;P1;durP2;ratioP2;P2;SDS_P1;SDS_P2;PMS_P1;PMS_P2;Temp;Humidity;BMP_temperature;BMP_pressure;BME280_temperature;BME280_humidity;BME280_pressure;Samples;Min_cycle;Max_cycle;Signal;HPM_P1;HPM_P2
2021/11/23 00:02:14;;;;;;;7.93;5.95;;;5.00;83.30;;;;;;5039551;28;20044;-66
2021/11/23 00:04:40;;;;;;;9.07;6.35;;;5.00;83.30;;;;;;5038507;28;20033;-66
2021/11/23 00:07:05;;;;;;;8.02;5.80;;;5.00;83.20;;;;;;5044850;28;20032;-65
2021/11/23 00:09:31;;;;;;;7.40;5.97;;;5.00;83.20;;;;;;5040721;28;20112;-66
2021/11/23 00:11:56;;;;;;;7.38;5.97;;;5.00;83.20;;;;;;5033502;28;20040;-66
2021/11/23 00:14:22;;;;;;;7.07;5.85;;;5.00;83.20;;;;;;5039833;28;20040;-66
2021/11/23 00:16:48;;;;;;;7.93;6.15;;;5.00;83.30;;;;;;5039690;28;20056;-65
2021/11/23 00:19:14;;;;;;;8.30;6.20;;;5.00;83.20;;;;;;5038295;28;20048;-65
2021/11/23 00:21:40;;;;;;;8.82;6.75;;;5.00;83.20;;;;;;5041520;28;20445;-66
2021/11/23 00:24:06;;;;;;;7.03;6.05;;;5.00;83.10;;;;;;5043610;28;20107;-66
2021/11/23 00:26:32;;;;;;;8.18;6.65;;;5.00;83.00;;;;;;5046012;28;20064;-66
2021/11/23 00:28:58;;;;;;;8.02;6.88;;;5.00;83.00;;;;;;5039901;28;20037;-66
2021/11/23 00:31:23;;;;;;;9.07;7.00;;;5.00;83.00;;;;;;5041518;28;20488;-66
2021/11/23 00:33:49;;;;;;;8.93;6.82;;;5.00;83.00;;;;;;5033655;28;20029;-66
2021/11/23 00:36:14;;;;;;;8.98;6.72;;;5.00;83.00;;;;;;5037040;28;20067;-66
2021/11/23 00:38:45;;;;;;;10.98;6.50;;;5.00;83.00;;;;;;5042087;28;20377;-66
2021/11/23 00:41:12;;;;;;;7.57;6.35;;;5.00;83.00;;;;;;5041562;28;20035;-65
2021/11/23 00:43:39;;;;;;;7.78;6.50;;;4.90;82.80;;;;;;5039581;28;20033;-66
2021/11/23 00:46:05;;;;;;;9.85;6.13;;;4.90;82.90;;;;;;5044973;28;20035;-66
2021/11/23 00:48:30;;;;;;;7.50;6.35;;;4.90;82.80;;;;;;5040616;28;20032;-65
2021/11/23 00:50:57;;;;;;;9.70;6.40;;;4.90;82.80;;;;;;5040794;28;20560;-66
2021/11/23 00:53:23;;;;;;;7.47;5.97;;;4.80;82.80;;;;;;5043972;28;20524;-65
2021/11/23 00:55:48;;;;;;;8.05;6.50;;;4.80;82.80;;;;;;5039912;28;20062;-66
2021/11/23 00:58:14;;;;;;;7.88;6.43;;;4.80;82.80;;;;;;5042490;28;20044;-66
2021/11/23 01:00:40;;;;;;;7.43;6.20;;;4.80;82.70;;;;;;5040231;28;20559;-66
2021/11/23 01:03:05;;;;;;;9.00;6.43;;;4.70;82.60;;;;;;5036977;28;20029;-65
2021/11/23 01:05:31;;;;;;;9.00;6.72;;;4.70;82.60;;;;;;5042195;28;20041;-66
2021/11/23 01:07:56;;;;;;;8.52;6.80;;;4.70;83.00;;;;;;5039207;28;20033;-66
2021/11/23 01:10:23;;;;;;;8.35;6.82;;;4.70;82.60;;;;;;5044397;28;20387;-66
2021/11/23 01:12:49;;;;;;;8.77;6.78;;;4.60;83.50;;;;;;5035082;28;20112;-66
2021/11/23 01:15:15;;;;;;;8.98;7.00;;;4.50;82.60;;;;;;5042071;28;20515;-66
2021/11/23 01:17:41;;;;;;;8.32;6.53;;;4.50;82.80;;;;;;5042070;28;20047;-65
2021/11/23 01:20:09;;;;;;;9.10;6.93;;;4.50;82.80;;;;;;5046277;28;20569;-66
2021/11/23 01:22:35;;;;;;;10.52;7.35;;;4.50;82.80;;;;;;5040339;28;20470;-66
2021/11/23 01:25:01;;;;;;;8.93;7.15;;;4.40;82.80;;;;;;5048041;28;20117;-64
2021/11/23 01:27:26;;;;;;;9.02;6.93;;;4.40;83.00;;;;;;5041690;28;20025;-66
2021/11/23 01:29:52;;;;;;;10.60;6.90;;;4.40;82.90;;;;;;5044749;28;20029;-65
2021/11/23 01:32:17;;;;;;;10.23;7.57;;;4.40;82.80;;;;;;5043433;28;20037;-65
2021/11/23 01:34:43;;;;;;;9.32;7.03;;;4.40;82.80;;;;;;5041942;28;20058;-66
2021/11/23 01:37:09;;;;;;;9.80;6.88;;;4.30;82.80;;;;;;5041036;28;20047;-66
2021/11/23 01:39:35;;;;;;;9.88;6.70;;;4.30;82.80;;;;;;5045590;28;20033;-66
2021/11/23 01:42:00;;;;;;;9.93;7.20;;;4.30;82.80;;;;;;5043181;28;20025;-66
2021/11/23 01:44:28;;;;;;;10.25;6.97;;;4.30;82.80;;;;;;5042248;28;20040;-66
2021/11/23 01:46:53;;;;;;;7.75;6.40;;;4.20;82.80;;;;;;5039996;28;20036;-66
2021/11/23 01:49:19;;;;;;;8.35;6.95;;;4.20;82.90;;;;;;5044586;28;20583;-66
2021/11/23 01:51:45;;;;;;;9.38;7.18;;;4.20;82.90;;;;;;5044108;28;20041;-66
2021/11/23 01:54:12;;;;;;;8.25;6.97;;;4.20;83.00;;;;;;5043115;28;20115;-66
2021/11/23 01:56:37;;;;;;;9.95;7.40;;;4.20;82.90;;;;;;5044375;28;20025;-67
2021/11/23 01:59:04;;;;;;;8.38;6.90;;;4.10;82.80;;;;;;5044572;28;20037;-66
2021/11/23 02:01:29;;;;;;;7.93;6.43;;;4.10;82.80;;;;;;5039576;28;20448;-66
2021/11/23 02:03:56;;;;;;;8.55;6.45;;;4.10;82.90;;;;;;5041038;28;20040;-66
2021/11/23 02:06:22;;;;;;;9.82;7.40;;;4.10;82.90;;;;;;5047796;28;20086;-65
2021/11/23 02:08:47;;;;;;;8.30;6.88;;;4.10;83.00;;;;;;5041212;28;20033;-68
2021/11/23 02:11:13;;;;;;;9.07;7.10;;;4.10;83.00;;;;;;5038681;28;20063;-66
2021/11/23 02:13:39;;;;;;;7.85;6.78;;;4.10;83.00;;;;;;5039271;28;20057;-66
2021/11/23 02:16:06;;;;;;;9.38;7.38;;;4.00;83.00;;;;;;5047100;28;20091;-66
2021/11/23 02:18:31;;;;;;;9.95;7.07;;;4.00;82.90;;;;;;5042184;28;20033;-66
2021/11/23 02:20:57;;;;;;;10.57;7.68;;;4.00;83.00;;;;;;5049060;28;20028;-66
2021/11/23 02:23:24;;;;;;;9.15;7.00;;;4.00;83.00;;;;;;5041085;28;20131;-66
2021/11/23 02:25:49;;;;;;;9.27;7.50;;;4.00;83.00;;;;;;5041445;28;20715;-65
2021/11/23 02:28:16;;;;;;;8.75;6.68;;;4.00;83.00;;;;;;5046772;28;20033;-66
2021/11/23 02:30:48;;;;;;;8.90;7.22;;;4.00;83.00;;;;;;5040352;28;21423;-66
2021/11/23 02:33:15;;;;;;;8.95;7.38;;;3.90;83.00;;;;;;5045287;28;20057;-65
2021/11/23 02:35:41;;;;;;;9.80;7.13;;;3.90;83.00;;;;;;5042652;28;20182;-66
2021/11/23 02:38:07;;;;;;;9.32;7.53;;;3.90;83.20;;;;;;5042374;28;20083;-66
2021/11/23 02:40:33;;;;;;;9.50;6.80;;;3.90;83.20;;;;;;5041557;28;20037;-66
2021/11/23 02:42:59;;;;;;;12.55;7.20;;;3.90;83.20;;;;;;5045967;28;20593;-66
2021/11/23 02:45:26;;;;;;;9.57;7.07;;;3.90;83.20;;;;;;5043718;28;20033;-65
2021/11/23 02:47:54;;;;;;;9.65;6.85;;;3.90;83.10;;;;;;5048453;28;20037;-66
2021/11/23 02:50:21;;;;;;;9.35;7.18;;;3.90;83.20;;;;;;5047234;28;20032;-66
2021/11/23 02:52:49;;;;;;;7.75;6.43;;;3.90;83.20;;;;;;5041078;28;20033;-66
2021/11/23 02:55:16;;;;;;;9.38;7.18;;;3.90;83.20;;;;;;5044962;28;20037;-66
2021/11/23 02:57:42;;;;;;;9.52;6.70;;;3.90;83.20;;;;;;5044551;28;20041;-66
2021/11/23 03:00:12;;;;;;;10.75;7.57;;;3.90;83.20;;;;;;5041270;28;20471;-65
2021/11/23 03:02:38;;;;;;;10.93;7.22;;;3.90;83.00;;;;;;5044069;28;20039;-66
2021/11/23 03:05:06;;;;;;;9.00;7.15;;;3.90;83.00;;;;;;5043347;28;20029;-66
2021/11/23 03:07:32;;;;;;;8.82;6.95;;;3.80;82.90;;;;;;5036845;28;20041;-66
2021/11/23 03:09:58;;;;;;;10.70;7.40;;;3.80;82.90;;;;;;5039839;28;20043;-66
2021/11/23 03:12:26;;;;;;;8.48;7.05;;;3.80;82.90;;;;;;5038444;28;20408;-66
2021/11/23 03:14:52;;;;;;;9.75;7.18;;;3.80;82.80;;;;;;5038923;28;20033;-65
2021/11/23 03:17:18;;;;;;;8.82;7.18;;;3.80;83.00;;;;;;5044364;28;20086;-66
2021/11/23 03:19:45;;;;;;;9.50;6.80;;;3.80;83.00;;;;;;5037334;28;20033;-66
2021/11/23 03:22:12;;;;;;;10.02;7.25;;;3.80;83.00;;;;;;5042318;28;20551;-66
2021/11/23 03:24:38;;;;;;;10.77;7.32;;;3.70;83.00;;;;;;5039582;28;20037;-66
2021/11/23 03:27:06;;;;;;;9.35;7.00;;;3.70;83.00;;;;;;5041571;28;20915;-66
2021/11/23 03:29:32;;;;;;;10.02;7.20;;;3.70;83.00;;;;;;5041952;28;20029;-66
2021/11/23 03:31:58;;;;;;;7.85;6.85;;;3.60;83.00;;;;;;5041559;28;20141;-66
2021/11/23 03:34:23;;;;;;;8.20;6.53;;;3.70;83.10;;;;;;5042712;28;20484;-66
2021/11/23 03:36:50;;;;;;;11.02;7.65;;;3.70;83.20;;;;;;5038852;28;20037;-66
2021/11/23 03:39:16;;;;;;;9.40;7.22;;;3.70;83.20;;;;;;5039916;28;20042;-66
2021/11/23 03:41:42;;;;;;;8.82;7.00;;;3.70;83.20;;;;;;5040699;28;20408;-66
2021/11/23 03:44:08;;;;;;;10.25;7.43;;;3.70;83.00;;;;;;5043559;28;20882;-67
2021/11/23 03:46:34;;;;;;;10.68;7.90;;;3.70;83.10;;;;;;5040012;28;20029;-66
2021/11/23 03:49:00;;;;;;;9.90;6.95;;;3.70;83.00;;;;;;5038767;28;20417;-66
2021/11/23 03:51:26;;;;;;;12.07;7.70;;;3.60;82.90;;;;;;5040347;28;20538;-66
2021/11/23 03:53:52;;;;;;;10.80;7.72;;;3.60;82.90;;;;;;5041610;28;20039;-66
2021/11/23 03:56:18;;;;;;;9.10;7.20;;;3.70;82.80;;;;;;5043468;28;20040;-66
2021/11/23 03:58:44;;;;;;;8.90;7.05;;;3.60;82.80;;;;;;5040456;28;20055;-66
2021/11/23 04:01:10;;;;;;;9.85;7.47;;;3.60;82.90;;;;;;5038927;28;20037;-66
2021/11/23 04:03:37;;;;;;;9.70;7.30;;;3.60;83.00;;;;;;5039816;28;20048;-66
2021/11/23 04:06:04;;;;;;;8.60;6.95;;;3.60;83.00;;;;;;5040140;28;20095;-66
2021/11/23 04:08:30;;;;;;;9.20;7.00;;;3.50;82.90;;;;;;5041077;28;20621;-65
2021/11/23 04:10:56;;;;;;;8.77;6.32;;;3.60;82.90;;;;;;5038966;28;20033;-65
2021/11/23 04:13:21;;;;;;;8.60;6.63;;;3.50;82.80;;;;;;5037906;28;20655;-66
2021/11/23 04:15:48;;;;;;;7.72;6.35;;;3.50;82.70;;;;;;5040584;28;20484;-66
2021/11/23 04:18:13;;;;;;;8.95;6.60;;;3.50;82.70;;;;;;5046597;28;20048;-65
2021/11/23 04:20:39;;;;;;;8.40;6.53;;;3.50;82.60;;;;;;5041447;28;20264;-66
2021/11/23 04:23:06;;;;;;;8.68;6.78;;;3.50;82.70;;;;;;5046094;28;20033;-66
2021/11/23 04:25:31;;;;;;;10.32;6.78;;;3.50;82.60;;;;;;5040232;28;20112;-66
2021/11/23 04:27:57;;;;;;;8.75;6.72;;;3.50;82.60;;;;;;5041547;28;21130;-66
2021/11/23 04:30:24;;;;;;;9.23;6.85;;;3.40;82.70;;;;;;5040147;28;20044;-66
2021/11/23 04:32:50;;;;;;;11.27;6.88;;;3.40;82.70;;;;;;5040029;28;20559;-66
2021/11/23 04:35:16;;;;;;;9.48;7.30;;;3.40;82.60;;;;;;5039805;28;20033;-66
2021/11/23 04:37:42;;;;;;;9.00;6.55;;;3.40;82.70;;;;;;5036218;28;20045;-66
2021/11/23 04:40:11;;;;;;;11.50;7.20;;;3.40;82.70;;;;;;5035988;28;20037;-66
2021/11/23 04:42:37;;;;;;;8.88;6.90;;;3.40;82.80;;;;;;5036409;28;20036;-66
2021/11/23 04:45:09;;;;;;;9.38;6.95;;;3.40;82.70;;;;;;5036307;28;20036;-66
2021/11/23 04:47:35;;;;;;;10.30;6.95;;;3.30;82.60;;;;;;5035961;28;20041;-64
2021/11/23 04:50:02;;;;;;;17.35;9.57;;;3.30;82.80;;;;;;5035372;28;20124;-64
2021/11/23 04:52:28;;;;;;;16.73;9.65;;;3.30;82.80;;;;;;5037102;28;20095;-66
2021/11/23 04:54:56;;;;;;;21.80;11.90;;;3.30;82.70;;;;;;5043318;28;20033;-63
2021/11/23 04:57:21;;;;;;;15.57;9.45;;;3.30;82.70;;;;;;5040593;28;20048;-66
2021/11/23 04:59:47;;;;;;;12.93;8.82;;;3.30;82.80;;;;;;5041905;28;20029;-66
2021/11/23 05:02:12;;;;;;;12.55;9.50;;;3.30;83.00;;;;;;5043009;28;20036;-66
2021/11/23 05:04:38;;;;;;;11.15;8.48;;;3.30;82.90;;;;;;5035892;28;20075;-66
2021/11/23 05:07:04;;;;;;;12.90;8.18;;;3.30;83.00;;;;;;5035878;28;20029;-66
2021/11/23 05:09:29;;;;;;;10.88;8.43;;;3.20;83.00;;;;;;5035775;28;20037;-66
2021/11/23 05:11:55;;;;;;;12.43;8.63;;;3.30;83.00;;;;;;5034120;28;20036;-67
2021/11/23 05:14:22;;;;;;;13.18;9.60;;;3.30;82.90;;;;;;5038068;28;20033;-66
2021/11/23 05:16:48;;;;;;;12.70;8.30;;;3.20;82.80;;;;;;5035966;28;20094;-66
2021/11/23 05:19:14;;;;;;;10.65;8.13;;;3.20;82.80;;;;;;5036812;28;20036;-67
2021/11/23 05:21:40;;;;;;;11.73;7.82;;;3.20;82.80;;;;;;5043629;28;20118;-66
2021/11/23 05:24:06;;;;;;;11.27;7.80;;;3.20;82.80;;;;;;5040945;28;20120;-66
2021/11/23 05:26:32;;;;;;;10.68;7.18;;;3.20;82.90;;;;;;5037780;28;20036;-66
2021/11/23 05:28:58;;;;;;;11.30;7.20;;;3.20;82.80;;;;;;5032347;28;20037;-66
2021/11/23 05:31:23;;;;;;;10.23;7.07;;;3.20;82.70;;;;;;5039430;28;20442;-67
2021/11/23 05:33:49;;;;;;;10.55;7.72;;;3.10;82.50;;;;;;5037954;28;20512;-66
2021/11/23 05:36:14;;;;;;;8.30;6.72;;;3.10;82.50;;;;;;5041941;28;20106;-66
2021/11/23 05:38:40;;;;;;;10.63;7.47;;;3.10;82.60;;;;;;5044500;28;20102;-66
2021/11/23 05:41:06;;;;;;;11.73;7.20;;;3.10;82.60;;;;;;5039952;28;20132;-67
2021/11/23 05:43:32;;;;;;;9.60;6.80;;;3.10;82.60;;;;;;5039382;28;20048;-66
2021/11/23 05:45:58;;;;;;;10.77;6.75;;;3.00;82.60;;;;;;5042469;28;20032;-66
2021/11/23 05:48:24;;;;;;;8.43;6.38;;;3.00;82.80;;;;;;5043811;28;20040;-66
2021/11/23 05:50:50;;;;;;;9.73;6.93;;;3.00;82.70;;;;;;5040757;28;20040;-67
2021/11/23 05:53:16;;;;;;;9.30;6.93;;;3.00;82.80;;;;;;5038779;28;20377;-67
2021/11/23 05:55:42;;;;;;;8.80;6.47;;;3.00;82.80;;;;;;5037385;28;20459;-67
2021/11/23 05:58:08;;;;;;;11.15;7.38;;;3.00;82.90;;;;;;5037094;28;20057;-66
2021/11/23 06:00:33;;;;;;;9.85;6.80;;;3.00;82.90;;;;;;5036770;28;20544;-66
2021/11/23 06:03:00;;;;;;;7.53;6.38;;;3.00;83.00;;;;;;5038837;28;20688;-66
2021/11/23 06:05:26;;;;;;;8.52;6.53;;;3.00;82.90;;;;;;5039808;28;20501;-66
2021/11/23 06:07:52;;;;;;;7.43;6.13;;;3.00;82.80;;;;;;5040265;28;20037;-67
2021/11/23 06:10:18;;;;;;;8.27;6.03;;;3.00;82.70;;;;;;5049617;28;20033;-67
2021/11/23 06:12:44;;;;;;;8.98;6.47;;;2.90;82.70;;;;;;5048003;28;20068;-67
2021/11/23 06:15:11;;;;;;;9.38;6.55;;;3.00;82.80;;;;;;5046712;28;20033;-66
2021/11/23 06:17:37;;;;;;;7.75;5.95;;;2.90;82.70;;;;;;5048993;28;20033;-66
2021/11/23 06:20:04;;;;;;;8.32;6.32;;;2.90;82.80;;;;;;5048632;28;20052;-66
2021/11/23 06:22:32;;;;;;;8.20;6.13;;;2.90;82.80;;;;;;5048670;28;20025;-67
2021/11/23 06:24:58;;;;;;;14.82;6.50;;;2.90;82.80;;;;;;5049022;28;20051;-66
2021/11/23 06:27:24;;;;;;;8.48;6.43;;;2.90;82.90;;;;;;5048886;28;20036;-66
2021/11/23 06:29:49;;;;;;;9.30;6.38;;;2.90;82.90;;;;;;5048698;28;20029;-67
2021/11/23 06:32:15;;;;;;;8.85;6.60;;;2.90;82.90;;;;;;5049294;28;20033;-66
2021/11/23 06:34:41;;;;;;;10.88;6.65;;;2.90;82.80;;;;;;5048546;28;20068;-66
2021/11/23 06:37:06;;;;;;;8.63;6.57;;;2.90;82.80;;;;;;5049320;28;20213;-67
2021/11/23 06:39:32;;;;;;;8.00;6.60;;;2.90;82.80;;;;;;5048880;28;20114;-66
2021/11/23 06:41:57;;;;;;;7.40;5.80;;;2.90;83.00;;;;;;5048849;28;20076;-66
2021/11/23 06:44:23;;;;;;;9.32;6.53;;;2.90;83.00;;;;;;5048107;28;20039;-67
2021/11/23 06:46:49;;;;;;;8.95;6.53;;;2.90;83.00;;;;;;5047985;28;20048;-66
2021/11/23 06:49:14;;;;;;;9.50;6.30;;;2.90;83.10;;;;;;5048722;28;20036;-66
2021/11/23 06:51:40;;;;;;;10.60;6.55;;;3.00;83.00;;;;;;5048680;28;20037;-66
2021/11/23 06:54:05;;;;;;;7.47;6.15;;;3.00;83.00;;;;;;5048841;28;20068;-66
2021/11/23 06:56:31;;;;;;;8.60;6.63;;;3.00;83.00;;;;;;5047804;28;20033;-67
2021/11/23 06:58:57;;;;;;;10.68;6.80;;;3.00;82.90;;;;;;5048521;28;20115;-66
2021/11/23 07:01:23;;;;;;;8.68;6.60;;;3.00;82.80;;;;;;5048565;28;20094;-66
2021/11/23 07:03:48;;;;;;;8.32;6.45;;;2.90;82.80;;;;;;5045941;28;20044;-66
2021/11/23 07:06:14;;;;;;;9.75;6.55;;;2.90;83.60;;;;;;5048365;28;20037;-66
2021/11/23 07:08:40;;;;;;;9.95;6.45;;;3.00;82.80;;;;;;5048194;28;20108;-66
2021/11/23 07:11:06;;;;;;;10.80;6.60;;;2.90;82.80;;;;;;5042849;28;20021;-66
2021/11/23 07:13:34;;;;;;;9.20;6.93;;;3.00;83.00;;;;;;5045328;28;20083;-67
2021/11/23 07:15:59;;;;;;;8.77;6.50;;;3.00;82.80;;;;;;5040516;28;20626;-66
2021/11/23 07:18:25;;;;;;;9.93;7.10;;;3.00;82.80;;;;;;5044433;28;20040;-67
2021/11/23 07:20:51;;;;;;;12.60;7.43;;;3.00;83.00;;;;;;5043324;28;20029;-66
2021/11/23 07:23:16;;;;;;;9.70;7.05;;;3.00;83.00;;;;;;5046715;28;20037;-66
2021/11/23 07:25:42;;;;;;;9.93;6.97;;;3.00;83.00;;;;;;5047216;28;20067;-67
2021/11/23 07:28:08;;;;;;;9.70;6.85;;;3.00;83.00;;;;;;5047893;28;20025;-69
2021/11/23 07:30:33;;;;;;;8.85;6.82;;;3.00;83.00;;;;;;5040255;28;20039;-66
2021/11/23 07:32:59;;;;;;;9.95;6.97;;;3.00;82.90;;;;;;5048431;28;20056;-66
2021/11/23 07:35:25;;;;;;;10.73;7.25;;;3.00;82.80;;;;;;5047415;28;20279;-66
2021/11/23 07:37:50;;;;;;;10.90;7.13;;;3.00;83.40;;;;;;5048359;28;20094;-67
2021/11/23 07:40:16;;;;;;;8.05;6.68;;;3.00;82.40;;;;;;5045056;28;20451;-66
2021/11/23 07:42:43;;;;;;;8.45;6.57;;;3.00;82.40;;;;;;5047136;28;20060;-67
2021/11/23 07:45:10;;;;;;;8.90;6.75;;;3.00;82.50;;;;;;5047370;28;20554;-66
2021/11/23 07:47:36;;;;;;;9.55;7.18;;;3.00;82.60;;;;;;5046790;28;20041;-66
2021/11/23 07:50:02;;;;;;;9.63;7.50;;;2.90;82.60;;;;;;5047569;28;20290;-65
2021/11/23 07:52:28;;;;;;;11.30;7.80;;;2.90;82.60;;;;;;5046997;28;20035;-67
2021/11/23 07:54:54;;;;;;;9.88;7.65;;;3.00;82.60;;;;;;5046357;28;20033;-67
2021/11/23 07:57:19;;;;;;;11.57;8.23;;;2.90;82.50;;;;;;5046836;28;20512;-66
2021/11/23 07:59:45;;;;;;;13.50;8.10;;;3.00;83.40;;;;;;5047195;28;20056;-69
2021/11/23 08:02:11;;;;;;;10.68;7.72;;;2.90;82.60;;;;;;5046853;28;20025;-66
2021/11/23 08:04:36;;;;;;;11.52;8.18;;;2.90;82.50;;;;;;5046279;28;20492;-66
2021/11/23 08:07:02;;;;;;;13.05;8.38;;;2.90;82.50;;;;;;5047269;28;20041;-66
2021/11/23 08:09:28;;;;;;;10.77;7.80;;;2.90;82.50;;;;;;5047268;28;20040;-67
2021/11/23 08:11:53;;;;;;;11.57;8.85;;;2.90;82.40;;;;;;5041501;28;20029;-66
2021/11/23 08:14:22;;;;;;;14.05;8.63;;;2.90;82.50;;;;;;5046731;28;20045;-66
2021/11/23 08:16:48;;;;;;;12.20;8.40;;;2.80;82.50;;;;;;5046866;28;20029;-66
2021/11/23 08:19:13;;;;;;;13.25;8.65;;;2.80;82.60;;;;;;5046923;28;20044;-66
2021/11/23 08:21:39;;;;;;;12.77;8.52;;;2.80;82.60;;;;;;5046513;28;20415;-65
2021/11/23 08:24:05;;;;;;;11.23;8.20;;;2.90;82.80;;;;;;5045490;28;20049;-67
2021/11/23 08:26:31;;;;;;;13.15;8.65;;;2.80;82.70;;;;;;5046169;28;20037;-66
2021/11/23 08:28:56;;;;;;;11.02;8.00;;;2.80;82.80;;;;;;5046252;28;20057;-66
2021/11/23 08:31:22;;;;;;;12.07;7.82;;;2.90;82.80;;;;;;5047425;28;20059;-66
2021/11/23 08:33:48;;;;;;;13.57;8.45;;;2.80;82.80;;;;;;5046163;28;20037;-67
2021/11/23 08:36:14;;;;;;;14.10;9.38;;;2.80;82.80;;;;;;5046866;28;20442;-68
2021/11/23 08:38:39;;;;;;;13.65;8.77;;;2.80;82.90;;;;;;5046239;28;20062;-67
2021/11/23 08:41:05;;;;;;;17.35;9.68;;;2.90;83.00;;;;;;5046915;28;20384;-67
2021/11/23 08:43:31;;;;;;;13.98;9.40;;;2.80;83.00;;;;;;5044964;28;20044;-67
2021/11/23 08:45:57;;;;;;;14.15;9.20;;;2.80;83.00;;;;;;5046715;28;20033;-66
2021/11/23 08:48:23;;;;;;;15.27;9.57;;;2.90;83.20;;;;;;5045821;28;20039;-66
2021/11/23 08:50:49;;;;;;;18.27;9.90;;;2.90;83.30;;;;;;5044500;28;20404;-67
2021/11/23 08:53:15;;;;;;;17.63;9.88;;;2.90;83.20;;;;;;5046262;28;20090;-66
2021/11/23 08:55:41;;;;;;;13.77;9.43;;;2.90;83.30;;;;;;5045898;28;20041;-66
2021/11/23 08:58:07;;;;;;;17.70;9.52;;;2.90;83.30;;;;;;5046454;28;20041;-67
2021/11/23 09:00:34;;;;;;;14.00;10.02;;;3.00;83.50;;;;;;5044886;28;20029;-67
2021/11/23 09:03:00;;;;;;;14.07;9.90;;;3.00;83.40;;;;;;5037892;28;20029;-67
2021/11/23 09:05:32;;;;;;;15.27;10.35;;;3.00;83.30;;;;;;5046859;28;20495;-67
2021/11/23 09:08:00;;;;;;;13.82;9.80;;;3.00;83.20;;;;;;5046828;28;20482;-66
2021/11/23 09:10:28;;;;;;;17.45;12.05;;;3.00;83.00;;;;;;5042352;28;20432;-67
2021/11/23 09:12:56;;;;;;;13.93;9.95;;;3.00;83.00;;;;;;5046956;28;20044;-66
2021/11/23 09:15:22;;;;;;;16.70;11.48;;;3.00;83.00;;;;;;5046786;28;20459;-66
2021/11/23 09:17:49;;;;;;;16.33;11.07;;;3.00;83.00;;;;;;5047881;28;20037;-67
2021/11/23 09:20:17;;;;;;;16.95;10.70;;;3.00;82.90;;;;;;5046630;28;20120;-67
2021/11/23 09:22:43;;;;;;;13.95;9.43;;;3.00;83.10;;;;;;5044735;28;20083;-65
2021/11/23 09:25:11;;;;;;;15.05;10.70;;;3.00;83.30;;;;;;5046722;28;20033;-66
2021/11/23 09:27:37;;;;;;;14.70;10.27;;;3.00;83.30;;;;;;5046397;28;20032;-66
2021/11/23 09:30:06;;;;;;;14.15;10.10;;;3.10;83.50;;;;;;5046372;28;20508;-66
2021/11/23 09:32:31;;;;;;;16.17;10.55;;;3.10;83.50;;;;;;5045968;28;20043;-66
2021/11/23 09:34:57;;;;;;;16.13;10.20;;;3.10;83.50;;;;;;5046937;28;20041;-66
2021/11/23 09:37:23;;;;;;;16.23;10.63;;;3.10;83.30;;;;;;5046215;28;20029;-66
2021/11/23 09:39:49;;;;;;;14.73;10.40;;;3.10;83.20;;;;;;5050499;28;20566;-66
2021/11/23 09:42:15;;;;;;;14.85;10.30;;;3.20;83.20;;;;;;5050766;28;20097;-67
2021/11/23 09:44:43;;;;;;;13.50;9.63;;;3.20;83.20;;;;;;5050093;28;20017;-67
2021/11/23 09:47:09;;;;;;;14.73;10.25;;;3.20;84.00;;;;;;5050292;28;20029;-68
2021/11/23 09:49:35;;;;;;;13.70;9.50;;;3.20;83.20;;;;;;5050670;28;20025;-68
2021/11/23 09:52:01;;;;;;;16.40;9.95;;;3.30;83.20;;;;;;5050783;28;20029;-68
2021/11/23 09:54:27;;;;;;;17.33;10.70;;;3.30;83.20;;;;;;5049502;28;20029;-68
2021/11/23 09:56:52;;;;;;;16.02;10.13;;;3.30;83.20;;;;;;5051265;28;20053;-68
2021/11/23 09:59:18;;;;;;;16.48;11.02;;;3.30;83.20;;;;;;5050193;28;20439;-68
2021/11/23 10:01:57;;;;;;;13.98;10.05;;;3.40;83.30;;;;;;5049494;28;20465;-67
2021/11/23 10:04:25;;;;;;;14.45;9.82;;;3.40;83.20;;;;;;5044078;28;20556;-68
2021/11/23 10:06:54;;;;;;;13.98;10.00;;;3.40;83.20;;;;;;5046972;28;20395;-67
2021/11/23 10:09:26;;;;;;;12.30;9.95;;;3.40;83.20;;;;;;5048814;28;20099;-67
2021/11/23 10:11:52;;;;;;;15.02;10.70;;;3.50;83.30;;;;;;5046838;28;20099;-68
2021/11/23 10:14:18;;;;;;;13.50;9.88;;;3.50;83.40;;;;;;5050720;28;20504;-68
2021/11/23 10:16:46;;;;;;;14.45;10.38;;;3.60;83.40;;;;;;5049373;28;20040;-68
2021/11/23 10:19:14;;;;;;;13.10;9.73;;;3.60;83.30;;;;;;5048146;28;20077;-67
2021/11/23 10:21:52;;;;;;;11.93;9.23;;;3.70;83.30;;;;;;5047769;28;20039;-68
2021/11/23 10:24:19;;;;;;;26.73;10.73;;;3.70;83.20;;;;;;5049280;28;20037;-68
2021/11/23 10:26:45;;;;;;;16.17;9.88;;;3.80;83.30;;;;;;5044928;28;20564;-68
2021/11/23 10:29:11;;;;;;;25.20;9.68;;;3.80;83.20;;;;;;5048919;28;20045;-68
2021/11/23 10:31:40;;;;;;;20.50;9.82;;;3.80;84.00;;;;;;5050790;28;20072;-68
2021/11/23 10:34:08;;;;;;;16.25;10.50;;;3.90;83.90;;;;;;5049109;28;20044;-68
2021/11/23 10:36:41;;;;;;;13.55;9.30;;;3.90;83.00;;;;;;5048259;28;20060;-68
2021/11/23 10:39:12;;;;;;;14.57;9.60;;;4.00;83.00;;;;;;5049243;28;20363;-68
2021/11/23 10:41:42;;;;;;;12.80;9.15;;;4.00;83.00;;;;;;5049922;28;20029;-68
2021/11/23 10:44:16;;;;;;;12.15;8.93;;;4.00;83.00;;;;;;5048730;28;20040;-67
2021/11/23 10:46:59;;;;;;;14.10;9.27;;;4.10;82.90;;;;;;5049491;28;20512;-68
2021/11/23 10:49:42;;;;;;;12.77;8.85;;;4.10;82.80;;;;;;5047587;28;20040;-66
2021/11/23 10:52:36;;;;;;;13.98;9.15;;;4.20;82.80;;;;;;5048516;28;20036;-69
2021/11/23 10:55:20;;;;;;;11.98;9.15;;;4.20;82.70;;;;;;5049146;28;20120;-68
2021/11/23 10:57:46;;;;;;;13.00;9.07;;;4.30;82.70;;;;;;5048875;28;20041;-69
2021/11/23 11:00:12;;;;;;;12.20;9.23;;;4.40;82.90;;;;;;5049418;28;20032;-69
2021/11/23 11:02:40;;;;;;;15.95;10.52;;;4.40;82.90;;;;;;5047805;28;20037;-69
2021/11/23 11:05:11;;;;;;;14.98;10.15;;;4.40;82.80;;;;;;5049291;28;20045;-68
2021/11/23 11:07:37;;;;;;;13.35;9.65;;;4.50;82.70;;;;;;5049275;28;20052;-69
2021/11/23 11:10:08;;;;;;;15.15;9.95;;;4.50;82.70;;;;;;5045083;28;20439;-68
2021/11/23 11:12:35;;;;;;;16.02;10.35;;;4.60;82.60;;;;;;5045089;28;20036;-68
2021/11/23 11:15:03;;;;;;;14.05;9.68;;;4.50;82.60;;;;;;5048673;28;20036;-67
2021/11/23 11:17:29;;;;;;;14.98;10.35;;;4.60;82.60;;;;;;5047912;28;20128;-68
2021/11/23 11:19:56;;;;;;;14.73;10.38;;;4.70;82.60;;;;;;5048536;28;20163;-68
2021/11/23 11:22:25;;;;;;;14.60;10.43;;;4.70;82.50;;;;;;5049379;28;20052;-68
2021/11/23 11:25:12;;;;;;;14.30;10.02;;;4.70;82.40;;;;;;5048384;28;20408;-65
2021/11/23 11:27:40;;;;;;;14.05;9.85;;;4.70;82.10;;;;;;5046772;28;20112;-68
2021/11/23 11:30:29;;;;;;;13.10;9.75;;;4.80;82.30;;;;;;5047966;28;20119;-69
2021/11/23 11:33:07;;;;;;;15.23;10.82;;;4.80;81.90;;;;;;5048872;28;20520;-64
2021/11/23 11:35:40;;;;;;;17.05;10.65;;;4.80;82.00;;;;;;5047951;28;20033;-68
2021/11/23 11:38:28;;;;;;;14.15;10.43;;;4.80;82.10;;;;;;5048625;28;20037;-69
2021/11/23 11:40:55;;;;;;;15.65;10.93;;;4.90;82.10;;;;;;5043882;28;20099;-69
2021/11/23 11:43:21;;;;;;;14.60;10.60;;;4.90;82.10;;;;;;5048404;28;20091;-68
2021/11/23 11:45:51;;;;;;;16.65;11.38;;;4.90;82.20;;;;;;5047787;28;20516;-68
2021/11/23 11:48:22;;;;;;;15.60;10.88;;;4.90;82.10;;;;;;5048573;28;20060;-68
2021/11/23 11:51:32;;;;;;;17.67;10.50;;;5.00;82.10;;;;;;5048481;28;20059;-68
2021/11/23 11:54:19;;;;;;;14.57;10.48;;;5.00;81.90;;;;;;5045408;28;20504;-68
2021/11/23 11:56:47;;;;;;;14.43;10.38;;;5.00;82.00;;;;;;5047724;28;20131;-69
2021/11/23 11:59:19;;;;;;;12.65;9.57;;;5.10;81.80;;;;;;5047538;28;20591;-68
2021/11/23 12:01:53;;;;;;;16.13;11.27;;;5.10;81.60;;;;;;5048166;28;20033;-68
2021/11/23 12:04:23;;;;;;;16.25;10.73;;;5.10;81.60;;;;;;5047440;28;20032;-68
2021/11/23 12:06:54;;;;;;;14.73;10.80;;;5.10;82.80;;;;;;5047994;28;20091;-68
2021/11/23 12:09:28;;;;;;;15.32;9.95;;;5.20;81.80;;;;;;5048211;28;20033;-68
2021/11/23 12:11:55;;;;;;;14.38;10.45;;;5.20;81.60;;;;;;5042598;28;20041;-68
2021/11/23 12:14:26;;;;;;;14.95;10.55;;;5.20;81.60;;;;;;5047966;28;20044;-68
2021/11/23 12:17:25;;;;;;;14.38;10.00;;;5.30;81.60;;;;;;5046661;28;20051;-68
2021/11/23 12:20:22;;;;;;;13.15;9.68;;;5.30;81.40;;;;;;5034952;28;20051;-68
2021/11/23 12:22:50;;;;;;;13.02;9.73;;;5.40;81.40;;;;;;5047360;28;20487;-68
2021/11/23 12:25:19;;;;;;;13.50;9.77;;;5.40;82.30;;;;;;5047099;28;20025;-68
2021/11/23 12:27:46;;;;;;;12.30;9.50;;;5.40;81.30;;;;;;5045808;28;20577;-68
2021/11/23 12:30:14;;;;;;;13.88;10.07;;;5.40;81.20;;;;;;5047377;28;20037;-68
2021/11/23 12:32:40;;;;;;;13.27;9.68;;;5.50;81.30;;;;;;5047036;28;20055;-68
2021/11/23 12:35:08;;;;;;;13.77;10.30;;;5.50;81.10;;;;;;5047015;28;20041;-68
2021/11/23 12:37:36;;;;;;;13.85;9.75;;;5.50;80.90;;;;;;5047464;28;20025;-68
2021/11/23 12:40:25;;;;;;;13.07;10.02;;;5.60;80.90;;;;;;5046828;28;20049;-68
2021/11/23 12:42:57;;;;;;;13.45;9.75;;;5.60;80.50;;;;;;5046664;28;20033;-67
2021/11/23 12:45:35;;;;;;;11.95;9.60;;;5.60;80.70;;;;;;5046911;28;20390;-67
2021/11/23 12:48:03;;;;;;;13.25;9.57;;;5.60;80.60;;;;;;5046380;28;20523;-67
2021/11/23 12:50:30;;;;;;;13.68;10.27;;;5.60;80.90;;;;;;5046240;28;20037;-67
2021/11/23 12:53:04;;;;;;;13.63;9.93;;;5.70;80.90;;;;;;5046890;28;20036;-68